createdAt,value
2022-09-12T00:02:45.678Z,0
2022-09-12T00:07:49.271Z,0
2022-09-12T00:12:53.782Z,0
2022-09-12T00:17:58.316Z,0
2022-09-12T00:23:01.918Z,0
2022-09-12T00:28:06.399Z,0
2022-09-12T00:33:10.951Z,0
2022-09-12T00:38:14.538Z,0
2022-09-12T00:43:19.059Z,0
2022-09-12T00:48:23.536Z,0
2022-09-12T00:53:27.118Z,0
2022-09-12T00:58:31.631Z,0
2022-09-12T01:03:36.204Z,0
2022-09-12T01:08:40.729Z,0
2022-09-12T01:13:44.253Z,0
2022-09-12T01:18:48.804Z,0
2022-09-12T01:23:53.437Z,0
2022-09-12T01:28:56.878Z,0
2022-09-12T01:34:01.385Z,0
2022-09-12T01:39:05.980Z,0
2022-09-12T01:44:09.536Z,0
2022-09-12T01:49:14.062Z,0
2022-09-12T01:54:18.592Z,0
2022-09-12T01:59:22.108Z,0
2022-09-12T02:04:29.127Z,0
2022-09-12T02:09:31.211Z,0
2022-09-12T02:14:35.710Z,0
2022-09-12T02:19:39.260Z,0
2022-09-12T02:24:43.834Z,0
2022-09-12T02:29:48.343Z,0
2022-09-12T02:34:51.896Z,0
2022-09-12T02:39:55.572Z,0
2022-09-12T02:44:59.956Z,0
2022-09-12T02:50:04.526Z,0
2022-09-12T02:55:09.102Z,0
2022-09-12T03:00:12.629Z,0
2022-09-12T03:05:17.152Z,0
2022-09-12T03:10:21.697Z,0
2022-09-12T03:15:25.200Z,0
2022-09-12T03:20:29.757Z,0
2022-09-12T03:25:34.333Z,0
2022-09-12T03:30:37.919Z,0
2022-09-12T03:35:42.361Z,0
2022-09-12T03:40:49.391Z,0
2022-09-12T03:45:50.543Z,0
2022-09-12T03:50:54.984Z,0
2022-09-12T03:55:59.555Z,0
2022-09-12T04:01:04.127Z,0
2022-09-12T04:06:07.639Z,0
2022-09-12T04:11:12.155Z,0
2022-09-12T04:16:16.790Z,0
2022-09-12T04:21:20.215Z,0
2022-09-12T04:26:24.778Z,0
2022-09-12T04:31:29.333Z,0
2022-09-12T04:36:32.841Z,8
2022-09-12T04:41:37.407Z,20
2022-09-12T04:46:41.943Z,56
2022-09-12T04:51:45.492Z,120
2022-09-12T04:56:50.054Z,244
2022-09-12T05:01:54.616Z,408
2022-09-12T05:06:59.054Z,632
2022-09-12T05:12:04.734Z,908
2022-09-12T05:17:07.147Z,1288
2022-09-12T05:22:11.683Z,1740
2022-09-12T05:27:15.257Z,2260
2022-09-12T05:32:19.761Z,2896
2022-09-12T05:37:24.340Z,3584
2022-09-12T05:42:27.958Z,4400
2022-09-12T05:47:32.445Z,5212
2022-09-12T05:52:37.027Z,5964
2022-09-12T05:57:40.490Z,7036
2022-09-12T06:02:44.993Z,9384
2022-09-12T06:07:49.568Z,10580
2022-09-12T06:12:54.097Z,13696
2022-09-12T06:17:57.655Z,14688
2022-09-12T06:23:02.159Z,12580
2022-09-12T06:28:06.747Z,13344
2022-09-12T06:33:10.264Z,11420
2022-09-12T06:38:14.826Z,13856
2022-09-12T06:43:19.365Z,12768
2022-09-12T06:48:22.876Z,13160
2022-09-12T06:53:27.420Z,13512
2022-09-12T06:58:31.013Z,17376
2022-09-12T07:03:35.476Z,18752
2022-09-12T07:08:40.056Z,16352
2022-09-12T07:13:43.672Z,16384
2022-09-12T07:18:48.259Z,16672
2022-09-12T07:23:52.658Z,18880
2022-09-12T07:29:07.908Z,21952
2022-09-12T07:34:00.701Z,23872
2022-09-12T07:39:05.253Z,26368
2022-09-12T07:44:08.846Z,24768
2022-09-12T07:49:13.330Z,24544
2022-09-12T07:54:17.849Z,24096
2022-09-12T07:59:48.505Z,30752
2022-09-12T08:04:25.936Z,36384
2022-09-12T08:09:30.482Z,45120
2022-09-12T08:14:35.090Z,43552
2022-09-12T08:19:38.575Z,40640
2022-09-12T08:24:43.109Z,39264
2022-09-12T08:29:47.699Z,41312
2022-09-12T08:34:51.220Z,45824
2022-09-12T08:39:55.840Z,46336
2022-09-12T08:45:00.290Z,43904
2022-09-12T08:50:03.845Z,56608
2022-09-12T08:55:08.402Z,48224
2022-09-12T09:00:12.908Z,43872
2022-09-12T09:05:17.413Z,39808
2022-09-12T09:10:20.970Z,41152
2022-09-12T09:15:25.640Z,47840
2022-09-12T09:20:30.108Z,58144
2022-09-12T09:25:33.562Z,57856
2022-09-12T09:30:38.199Z,57856
2022-09-12T09:35:42.645Z,56032
2022-09-12T09:40:46.221Z,76000
2022-09-12T09:45:50.831Z,78016
2022-09-12T09:50:55.281Z,62816
2022-09-12T09:55:58.819Z,67008
2022-09-12T10:01:03.480Z,79616
2022-09-12T10:06:07.889Z,76128
2022-09-12T10:11:12.467Z,77728
2022-09-12T10:16:16.073Z,79872
2022-09-12T10:21:20.553Z,77632
2022-09-12T10:26:25.075Z,82688
2022-09-12T10:31:28.742Z,86208
2022-09-12T10:36:33.162Z,54592
2022-09-12T10:41:37.718Z,33600
2022-09-12T10:46:41.292Z,31648
2022-09-12T10:51:45.787Z,32736
2022-09-12T10:56:50.381Z,34048
2022-09-12T11:01:53.995Z,35008
2022-09-12T11:06:58.417Z,38528
2022-09-12T11:12:01.976Z,40576
2022-09-12T11:17:08.835Z,75136
2022-09-12T11:22:11.067Z,93056
2022-09-12T11:27:14.613Z,91968
2022-09-12T11:32:19.159Z,93152
2022-09-12T11:37:23.678Z,80992
2022-09-12T11:42:27.264Z,93120
2022-09-12T11:47:31.781Z,69120
2022-09-12T11:52:36.289Z,92864
2022-09-12T11:57:40.856Z,75808
2022-09-12T12:02:44.595Z,82560
2022-09-12T12:07:48.933Z,84896
2022-09-12T12:12:53.497Z,72864
2022-09-12T12:17:57.055Z,73824
2022-09-12T12:23:01.585Z,81120
2022-09-12T12:28:06.103Z,73696
2022-09-12T12:33:09.759Z,77856
2022-09-12T12:38:14.181Z,81280
2022-09-12T12:43:18.735Z,71104
2022-09-12T12:48:22.285Z,75232
2022-09-12T12:53:26.847Z,74720
2022-09-12T12:58:31.349Z,70688
2022-09-12T13:03:35.967Z,70368
2022-09-12T13:08:39.455Z,71744
2022-09-12T13:13:44.041Z,69632
2022-09-12T13:18:48.678Z,65568
2022-09-12T13:23:52.150Z,64576
2022-09-12T13:28:56.640Z,67328
2022-09-12T13:34:01.198Z,66528
2022-09-12T13:39:04.735Z,62016
2022-09-12T13:44:09.281Z,63168
2022-09-12T13:49:13.896Z,60960
2022-09-12T13:54:19.305Z,58304
2022-09-12T13:59:21.894Z,54272
2022-09-12T14:04:26.455Z,55520
2022-09-12T14:09:30.965Z,55872
2022-09-12T14:14:34.513Z,52736
2022-09-12T14:19:39.067Z,52224
2022-09-12T14:24:43.597Z,48672
2022-09-12T14:31:03.332Z,42432
2022-09-12T14:36:07.840Z,38400
2022-09-12T14:41:12.302Z,35200
2022-09-12T14:46:15.909Z,36832
2022-09-12T14:51:20.441Z,35648
2022-09-12T14:56:24.944Z,32000
2022-09-12T15:01:28.608Z,26144
2022-09-12T15:06:33.077Z,20800
2022-09-12T15:11:37.587Z,16352
2022-09-12T15:16:41.170Z,15408
2022-09-12T15:21:45.723Z,15872
2022-09-12T15:26:49.253Z,20288
2022-09-12T15:31:53.730Z,19616
2022-09-12T15:36:58.426Z,15872
2022-09-12T15:42:01.830Z,15968
2022-09-12T15:47:06.387Z,14092
2022-09-12T15:52:10.913Z,12128
2022-09-12T15:58:30.569Z,11304
2022-09-12T16:03:35.107Z,10800
2022-09-12T16:08:39.698Z,8284
2022-09-12T16:13:43.230Z,7920
2022-09-12T16:18:47.962Z,9616
2022-09-12T16:23:52.292Z,8628
2022-09-12T16:28:56.791Z,6764
2022-09-12T16:34:00.361Z,6992
2022-09-12T16:39:04.989Z,6492
2022-09-12T16:44:09.439Z,5820
2022-09-12T16:49:13.268Z,5608
2022-09-12T16:54:17.608Z,5388
2022-09-12T16:59:22.090Z,4872
2022-09-12T17:04:25.601Z,4308
2022-09-12T17:09:30.257Z,3900
2022-09-12T17:14:34.664Z,3420
2022-09-12T17:19:38.198Z,2984
2022-09-12T17:24:42.762Z,2492
2022-09-12T17:29:47.302Z,1864
2022-09-12T17:34:51.882Z,1280
2022-09-12T17:41:11.528Z,844
2022-09-12T17:46:16.045Z,524
2022-09-12T17:51:20.591Z,280
2022-09-12T17:56:24.160Z,152
2022-09-12T18:01:28.703Z,80
2022-09-12T18:06:33.175Z,40
2022-09-12T18:11:36.851Z,16
2022-09-12T18:16:41.261Z,8
2022-09-12T18:21:45.810Z,4
2022-09-12T18:26:49.370Z,0
2022-09-12T18:31:53.868Z,0
2022-09-12T18:36:58.441Z,0
2022-09-12T18:42:02.014Z,0
2022-09-12T18:47:06.519Z,0
2022-09-12T18:52:11.037Z,0
2022-09-12T18:57:15.598Z,0
2022-09-12T19:02:19.134Z,0
2022-09-12T19:07:23.641Z,0
2022-09-12T19:13:44.394Z,0
2022-09-12T19:18:47.891Z,0
2022-09-12T19:23:52.414Z,0
2022-09-12T19:28:56.947Z,0
2022-09-12T19:34:00.508Z,0
2022-09-12T19:39:04.069Z,0
2022-09-12T19:44:08.628Z,0
2022-09-12T19:49:13.299Z,0
2022-09-12T19:54:17.669Z,0
2022-09-12T19:59:21.327Z,0
2022-09-12T20:04:25.730Z,0
2022-09-12T20:09:30.257Z,0
2022-09-12T20:14:33.943Z,0
2022-09-12T20:19:38.357Z,0
2022-09-12T20:24:42.913Z,0
2022-09-12T20:29:46.455Z,0
2022-09-12T20:34:50.980Z,0
2022-09-12T20:39:55.611Z,0
2022-09-12T20:44:59.087Z,0
2022-09-12T20:50:03.635Z,0
2022-09-12T20:55:08.139Z,0
2022-09-12T21:00:12.681Z,0
2022-09-12T21:05:16.221Z,0
2022-09-12T21:10:20.771Z,0
2022-09-12T21:15:25.314Z,0
2022-09-12T21:20:28.866Z,0
2022-09-12T21:25:33.358Z,0
2022-09-12T21:30:37.944Z,0
2022-09-12T21:35:41.491Z,0
2022-09-12T21:40:45.968Z,0
2022-09-12T21:45:50.556Z,0
2022-09-12T21:50:54.076Z,0
2022-09-12T21:55:58.610Z,0
2022-09-12T22:01:03.217Z,0
2022-09-12T22:06:07.667Z,0
2022-09-12T22:11:11.209Z,0
2022-09-12T22:16:15.938Z,0
2022-09-12T22:21:20.310Z,0
2022-09-12T22:26:23.828Z,0
2022-09-12T22:31:28.451Z,0
2022-09-12T22:36:36.983Z,0
2022-09-12T22:41:36.470Z,0
2022-09-12T22:46:41.116Z,0
2022-09-12T22:51:45.515Z,0
2022-09-12T22:56:49.087Z,0
2022-09-12T23:01:53.624Z,0
2022-09-12T23:06:58.134Z,0
2022-09-12T23:12:02.713Z,0
2022-09-12T23:17:06.238Z,0
2022-09-12T23:22:10.784Z,0
2022-09-12T23:27:15.277Z,0
2022-09-12T23:32:19.048Z,0
2022-09-12T23:37:23.398Z,0
2022-09-12T23:42:27.928Z,0
2022-09-12T23:47:31.465Z,0
2022-09-12T23:52:35.984Z,0
2022-09-12T23:57:39.544Z,0
